EWG6903 ESSA-EDDH
Flight info
| Callsign | EWG6903 |
|---|---|
| Flight time | N/A |
| Altitude | 34000 |
| Route | NOSLI N850 ABAMA DCT GIMRU T503 MICOS N850 BOGMU BOGMU5A |
| Aircraft | A20N/M-SDE2E3FGHIRWXY/LB1 |
Departure
| Time | 2026-05-05 17:22 |
|---|---|
| Airport | Stockholm-Arlanda Airport (ESSA) |
Arrival
| Time | N/A |
|---|---|
| Airport | Hamburg Helmut Schmidt Airport (EDDH) |
| Time | Latitude | Longitude | Altitude | Speed | Heading |
|---|---|---|---|---|---|
| 2026-05-05 16:57 | 59.64334 | 17.92859 | 114 ft | 0 kts | 35° |
| 2026-05-05 17:11 | 59.64328 | 17.92851 | 114 ft | 1 kts | 35° |
| 2026-05-05 17:11 | 59.64321 | 17.92842 | 111 ft | 1 kts | 35° |
| 2026-05-05 17:11 | 59.64315 | 17.92833 | 111 ft | 1 kts | 35° |
| 2026-05-05 17:12 | 59.64308 | 17.92823 | 110 ft | 2 kts | 35° |
| 2026-05-05 17:12 | 59.64296 | 17.92806 | 113 ft | 2 kts | 35° |
| 2026-05-05 17:12 | 59.64283 | 17.92789 | 111 ft | 2 kts | 36° |
| 2026-05-05 17:12 | 59.64271 | 17.92772 | 112 ft | 2 kts | 36° |
| 2026-05-05 17:13 | 59.64260 | 17.92754 | 110 ft | 2 kts | 47° |
| 2026-05-05 17:13 | 59.64250 | 17.92731 | 110 ft | 2 kts | 64° |
| 2026-05-05 17:13 | 59.64245 | 17.92704 | 111 ft | 2 kts | 83° |
| 2026-05-05 17:13 | 59.64245 | 17.92668 | 109 ft | 2 kts | 102° |
| 2026-05-05 17:14 | 59.64247 | 17.92652 | 110 ft | 0 kts | 115° |
| 2026-05-05 17:15 | 59.64241 | 17.92676 | 110 ft | 4 kts | 116° |
| 2026-05-05 17:16 | 59.64226 | 17.92738 | 112 ft | 6 kts | 116° |
| 2026-05-05 17:16 | 59.64214 | 17.92788 | 113 ft | 1 kts | 115° |
| 2026-05-05 17:16 | 59.64205 | 17.92826 | 111 ft | 5 kts | 115° |
| 2026-05-05 17:16 | 59.64177 | 17.92876 | 115 ft | 6 kts | 161° |
| 2026-05-05 17:17 | 59.64134 | 17.92840 | 113 ft | 8 kts | 231° |
| 2026-05-05 17:17 | 59.64141 | 17.92722 | 112 ft | 10 kts | 295° |
| 2026-05-05 17:17 | 59.64174 | 17.92594 | 113 ft | 11 kts | 297° |
| 2026-05-05 17:17 | 59.64206 | 17.92473 | 113 ft | 10 kts | 297° |
| 2026-05-05 17:18 | 59.64243 | 17.92331 | 112 ft | 11 kts | 297° |
| 2026-05-05 17:18 | 59.64276 | 17.92198 | 112 ft | 8 kts | 297° |
| 2026-05-05 17:18 | 59.64305 | 17.92089 | 112 ft | 10 kts | 299° |
| 2026-05-05 17:18 | 59.64328 | 17.91954 | 112 ft | 11 kts | 261° |
| 2026-05-05 17:19 | 59.64263 | 17.91879 | 112 ft | 13 kts | 191° |
| 2026-05-05 17:19 | 59.64173 | 17.91844 | 111 ft | 14 kts | 191° |
| 2026-05-05 17:19 | 59.64071 | 17.91805 | 111 ft | 15 kts | 191° |
| 2026-05-05 17:19 | 59.63962 | 17.91766 | 109 ft | 16 kts | 189° |
| 2026-05-05 17:20 | 59.63865 | 17.91724 | 110 ft | 11 kts | 201° |
| 2026-05-05 17:20 | 59.63794 | 17.91625 | 108 ft | 14 kts | 221° |
| 2026-05-05 17:20 | 59.63727 | 17.91476 | 109 ft | 15 kts | 254° |
| 2026-05-05 17:20 | 59.63737 | 17.91387 | 109 ft | 6 kts | 307° |
| 2026-05-05 17:21 | 59.63780 | 17.91350 | 110 ft | 8 kts | 358° |
| 2026-05-05 17:21 | 59.63807 | 17.91356 | 110 ft | 0 kts | 10° |
| 2026-05-05 17:22 | 59.64109 | 17.91460 | 108 ft | 75 kts | 10° |
| 2026-05-05 17:22 | 59.64841 | 17.91733 | 114 ft | 136 kts | 11° |
| 2026-05-05 17:22 | 59.65927 | 17.92124 | 229 ft | 173 kts | 10° |
| 2026-05-05 17:22 | 59.67136 | 17.92586 | 760 ft | 178 kts | 11° |
| 2026-05-05 17:23 | 59.68329 | 17.93049 | 1578 ft | 174 kts | 10° |
| 2026-05-05 17:23 | 59.69545 | 17.93450 | 2187 ft | 181 kts | 359° |
| 2026-05-05 17:23 | 59.70780 | 17.92840 | 2782 ft | 188 kts | 328° |
| 2026-05-05 17:23 | 59.71670 | 17.90913 | 3382 ft | 198 kts | 292° |
| 2026-05-05 17:24 | 59.71815 | 17.88156 | 3977 ft | 210 kts | 257° |
| 2026-05-05 17:24 | 59.71204 | 17.85485 | 4571 ft | 216 kts | 239° |
| 2026-05-05 17:24 | 59.70410 | 17.82941 | 5146 ft | 218 kts | 237° |
| 2026-05-05 17:24 | 59.69588 | 17.80395 | 5721 ft | 220 kts | 237° |
| 2026-05-05 17:25 | 59.68815 | 17.77805 | 6291 ft | 222 kts | 245° |
| 2026-05-05 17:25 | 59.68444 | 17.75875 | 6683 ft | 224 kts | 252° |
| 2026-05-05 17:25 | 59.67622 | 17.72013 | 7404 ft | 240 kts | 230° |
| 2026-05-05 17:25 | 59.66327 | 17.69835 | 8038 ft | 251 kts | 213° |
| 2026-05-05 17:26 | 59.64790 | 17.68008 | 8626 ft | 266 kts | 210° |
| 2026-05-05 17:26 | 59.63171 | 17.66150 | 9207 ft | 280 kts | 211° |
| 2026-05-05 17:26 | 59.61458 | 17.64067 | 9800 ft | 286 kts | 212° |
| 2026-05-05 17:26 | 59.59776 | 17.61903 | 10379 ft | 294 kts | 214° |
| 2026-05-05 17:27 | 59.58038 | 17.59595 | 10963 ft | 307 kts | 214° |
| 2026-05-05 17:27 | 59.56238 | 17.57174 | 11549 ft | 320 kts | 214° |
| 2026-05-05 17:27 | 59.54365 | 17.54652 | 12133 ft | 331 kts | 214° |
| 2026-05-05 17:27 | 59.52432 | 17.52051 | 12713 ft | 342 kts | 214° |
| 2026-05-05 17:28 | 59.50441 | 17.49382 | 13293 ft | 349 kts | 214° |
| 2026-05-05 17:28 | 59.48424 | 17.46683 | 13875 ft | 352 kts | 214° |
| 2026-05-05 17:28 | 59.46387 | 17.43963 | 14451 ft | 355 kts | 214° |
| 2026-05-05 17:28 | 59.44335 | 17.41227 | 15024 ft | 358 kts | 214° |
| 2026-05-05 17:29 | 59.42266 | 17.38473 | 15604 ft | 361 kts | 214° |
| 2026-05-05 17:29 | 59.40174 | 17.35693 | 16174 ft | 364 kts | 214° |
| 2026-05-05 17:29 | 59.38093 | 17.32932 | 16752 ft | 367 kts | 214° |
| 2026-05-05 17:29 | 59.35966 | 17.30113 | 17328 ft | 370 kts | 214° |
| 2026-05-05 17:30 | 59.33823 | 17.27279 | 17902 ft | 374 kts | 214° |
| 2026-05-05 17:30 | 59.31656 | 17.24417 | 18484 ft | 377 kts | 214° |
| 2026-05-05 17:30 | 59.29466 | 17.21529 | 19056 ft | 380 kts | 214° |
| 2026-05-05 17:30 | 59.27262 | 17.18628 | 19635 ft | 384 kts | 214° |
| 2026-05-05 17:31 | 59.25030 | 17.15695 | 20215 ft | 387 kts | 214° |
| 2026-05-05 17:31 | 59.22790 | 17.12755 | 20780 ft | 390 kts | 214° |
| 2026-05-05 17:31 | 59.20510 | 17.09769 | 21371 ft | 397 kts | 214° |
| 2026-05-05 17:31 | 59.18198 | 17.06746 | 21949 ft | 403 kts | 214° |
| 2026-05-05 17:32 | 59.15855 | 17.03688 | 22524 ft | 406 kts | 214° |
| 2026-05-05 17:32 | 59.13507 | 17.00628 | 23062 ft | 408 kts | 214° |
| 2026-05-05 17:32 | 59.11135 | 16.97542 | 23562 ft | 412 kts | 214° |
| 2026-05-05 17:32 | 59.08739 | 16.94430 | 24065 ft | 414 kts | 214° |
| 2026-05-05 17:33 | 59.06336 | 16.91315 | 24563 ft | 417 kts | 214° |
| 2026-05-05 17:33 | 59.03949 | 16.88226 | 25060 ft | 419 kts | 214° |
| 2026-05-05 17:33 | 59.01516 | 16.85082 | 25567 ft | 420 kts | 214° |
| 2026-05-05 17:33 | 58.99078 | 16.81937 | 26056 ft | 421 kts | 214° |
| 2026-05-05 17:34 | 58.96622 | 16.78776 | 26546 ft | 423 kts | 214° |
| 2026-05-05 17:34 | 58.94176 | 16.75631 | 26993 ft | 424 kts | 214° |
| 2026-05-05 17:34 | 58.91708 | 16.72464 | 27445 ft | 425 kts | 213° |
| 2026-05-05 17:34 | 58.89247 | 16.69312 | 27895 ft | 426 kts | 213° |
| 2026-05-05 17:35 | 58.86774 | 16.66150 | 28343 ft | 426 kts | 213° |
| 2026-05-05 17:35 | 58.84302 | 16.62996 | 28786 ft | 426 kts | 213° |
| 2026-05-05 17:35 | 58.81834 | 16.59851 | 29241 ft | 425 kts | 213° |
| 2026-05-05 17:35 | 58.79363 | 16.56708 | 29692 ft | 424 kts | 213° |
| 2026-05-05 17:36 | 58.76902 | 16.53584 | 30139 ft | 423 kts | 213° |
| 2026-05-05 17:36 | 58.74448 | 16.50473 | 30588 ft | 422 kts | 213° |
| 2026-05-05 17:36 | 58.72001 | 16.47377 | 31036 ft | 420 kts | 213° |
| 2026-05-05 17:36 | 58.69560 | 16.44293 | 31484 ft | 418 kts | 213° |
| 2026-05-05 17:37 | 58.67133 | 16.41233 | 31925 ft | 416 kts | 213° |
| 2026-05-05 17:37 | 58.64742 | 16.38223 | 32374 ft | 413 kts | 213° |
| 2026-05-05 17:37 | 58.62346 | 16.35211 | 32820 ft | 410 kts | 213° |
| 2026-05-05 17:37 | 58.59963 | 16.32222 | 33271 ft | 407 kts | 213° |
| 2026-05-05 17:38 | 58.57604 | 16.29266 | 33711 ft | 402 kts | 213° |
| 2026-05-05 17:38 | 58.55259 | 16.26333 | 33950 ft | 404 kts | 213° |
| 2026-05-05 17:38 | 58.52880 | 16.23363 | 33998 ft | 411 kts | 213° |
| 2026-05-05 17:39 | 58.48030 | 16.17322 | 34000 ft | 417 kts | 213° |
| 2026-05-05 17:39 | 58.43184 | 16.11308 | 34001 ft | 422 kts | 213° |
| 2026-05-05 17:40 | 58.38169 | 16.05102 | 34002 ft | 437 kts | 213° |
| 2026-05-05 17:40 | 58.32975 | 15.98700 | 34001 ft | 451 kts | 213° |
| 2026-05-05 17:41 | 58.27693 | 15.92212 | 33999 ft | 452 kts | 213° |
| 2026-05-05 17:41 | 58.22415 | 15.85753 | 34001 ft | 452 kts | 213° |
| 2026-05-05 17:42 | 58.17126 | 15.79302 | 33999 ft | 452 kts | 213° |